Time;durP1;ratioP1;P1;durP2;ratioP2;P2;SDS_P1;SDS_P2;PMS_P1;PMS_P2;Temp;Humidity;BMP_temperature;BMP_pressure;BME280_temperature;BME280_humidity;BME280_pressure;Samples;Min_cycle;Max_cycle;Signal;HPM_P1;HPM_P2
2021/06/27 00:00:20;;;;;;;1.17;0.70;;;;;;;19.29;100.00;100251.41;5067622;28;20489;-55
2021/06/27 00:02:47;;;;;;;0.50;0.30;;;;;;;19.27;100.00;100239.88;5068899;28;20446;-55
2021/06/27 00:05:17;;;;;;;0.40;0.20;;;;;;;19.28;100.00;100247.00;5071772;28;20967;-55
2021/06/27 00:07:44;;;;;;;0.40;0.20;;;;;;;19.12;100.00;100255.22;5071753;28;20507;-55
2021/06/27 00:10:15;;;;;;;0.77;0.77;;;;;;;19.10;100.00;100249.06;5064615;28;20482;-55
2021/06/27 00:12:43;;;;;;;0.40;0.20;;;;;;;19.16;100.00;100254.03;5071802;28;20815;-55
2021/06/27 00:15:17;;;;;;;0.40;0.20;;;;;;;19.04;100.00;100244.03;5071647;28;20454;-55
2021/06/27 00:17:44;;;;;;;0.40;0.20;;;;;;;19.14;100.00;100250.56;5071731;28;20442;-55
2021/06/27 00:20:14;;;;;;;0.40;0.30;;;;;;;19.15;100.00;100244.22;5062094;28;20571;-55
2021/06/27 00:22:41;;;;;;;0.40;0.23;;;;;;;19.17;100.00;100253.94;5060624;28;20773;-55
2021/06/27 00:25:12;;;;;;;0.50;0.30;;;;;;;19.13;100.00;100244.31;5071930;28;20449;-55
2021/06/27 00:27:40;;;;;;;0.70;0.50;;;;;;;19.06;100.00;100248.41;5071522;28;20931;-55
2021/06/27 00:30:09;;;;;;;0.60;0.60;;;;;;;18.97;100.00;100254.38;5070380;28;20474;-54
2021/06/27 00:32:37;;;;;;;0.50;0.30;;;;;;;19.24;100.00;100257.13;5051431;28;20447;-55
2021/06/27 00:35:10;;;;;;;0.40;0.30;;;;;;;19.19;100.00;100249.34;5059443;28;20473;-55
2021/06/27 00:37:37;;;;;;;0.50;0.50;;;;;;;19.28;100.00;100245.16;5071454;28;20499;-55
2021/06/27 00:40:09;;;;;;;0.40;0.20;;;;;;;19.17;100.00;100251.25;5071336;28;20568;-55
2021/06/27 00:42:36;;;;;;;0.50;0.50;;;;;;;19.11;100.00;100248.94;5058654;28;20442;-55
2021/06/27 00:45:07;;;;;;;0.60;0.47;;;;;;;18.93;100.00;100245.63;5065081;28;20482;-55
2021/06/27 00:47:36;;;;;;;0.40;0.20;;;;;;;19.02;100.00;100254.91;5064837;28;20461;-55
2021/06/27 00:50:08;;;;;;;0.40;0.20;;;;;;;18.78;100.00;100248.44;5071251;28;20472;-55
2021/06/27 00:52:35;;;;;;;0.60;0.60;;;;;;;18.91;100.00;100252.94;5071311;28;20920;-55
2021/06/27 00:55:04;;;;;;;0.40;0.30;;;;;;;18.91;100.00;100252.03;5070116;28;20873;-55
2021/06/27 00:57:31;;;;;;;0.40;0.20;;;;;;;19.00;100.00;100251.47;5057894;28;20446;-55
2021/06/27 01:00:00;;;;;;;0.40;0.20;;;;;;;19.12;100.00;100249.81;5071094;28;20528;-55
2021/06/27 01:02:27;;;;;;;0.40;0.30;;;;;;;18.99;100.00;100252.44;5070569;28;20441;-55
2021/06/27 01:04:53;;;;;;;0.60;0.60;;;;;;;19.19;100.00;100246.63;5074881;28;20911;-55
2021/06/27 01:07:20;;;;;;;0.40;0.20;;;;;;;19.01;100.00;100252.34;5074549;28;20446;-55
2021/06/27 01:09:46;;;;;;;0.40;0.20;;;;;;;19.00;100.00;100248.78;5074410;28;20571;-55
2021/06/27 01:12:14;;;;;;;0.50;0.50;;;;;;;18.86;100.00;100254.19;5058155;28;20458;-56
2021/06/27 01:14:40;;;;;;;0.40;0.20;;;;;;;18.88;100.00;100250.41;5074570;28;20947;-55
2021/06/27 01:17:07;;;;;;;0.40;0.30;;;;;;;19.01;100.00;100242.41;5074519;28;21004;-55
2021/06/27 01:19:34;;;;;;;0.97;0.87;;;;;;;18.89;100.00;100244.06;5074546;28;20503;-55
2021/06/27 01:22:01;;;;;;;2.40;2.30;;;;;;;18.94;100.00;100233.00;5074298;28;20454;-55
2021/06/27 01:24:28;;;;;;;0.40;0.20;;;;;;;18.89;100.00;100235.13;5074202;28;20449;-55
2021/06/27 01:26:55;;;;;;;2.43;1.57;;;;;;;18.74;100.00;100234.25;5074594;28;20484;-55
2021/06/27 01:29:22;;;;;;;0.50;0.40;;;;;;;18.62;100.00;100235.00;5074394;28;20582;-55
2021/06/27 01:31:49;;;;;;;0.40;0.20;;;;;;;18.66;100.00;100235.72;5062517;28;20515;-55
2021/06/27 01:34:16;;;;;;;0.40;0.20;;;;;;;18.72;100.00;100227.25;5074296;28;20453;-55
2021/06/27 01:36:42;;;;;;;0.87;0.87;;;;;;;18.75;100.00;100232.44;5074220;28;20450;-55
2021/06/27 01:39:09;;;;;;;0.40;0.30;;;;;;;18.68;100.00;100236.50;5074121;28;20450;-55
2021/06/27 01:41:36;;;;;;;1.67;1.53;;;;;;;18.78;100.00;100241.22;5069532;28;20520;-56
2021/06/27 01:44:03;;;;;;;2.03;0.70;;;;;;;18.74;100.00;100241.47;5065435;28;20495;-55
2021/06/27 01:46:29;;;;;;;1.10;1.00;;;;;;;18.82;100.00;100253.50;5072337;28;20465;-55
2021/06/27 01:48:56;;;;;;;0.40;0.30;;;;;;;18.80;100.00;100251.88;5073986;28;20454;-55
2021/06/27 01:51:23;;;;;;;0.50;0.30;;;;;;;18.81;100.00;100254.47;5073569;28;21040;-55
2021/06/27 01:53:49;;;;;;;0.40;0.20;;;;;;;18.80;100.00;100249.19;5073693;28;20446;-55
2021/06/27 01:56:16;;;;;;;0.50;0.50;;;;;;;18.81;100.00;100250.91;5073985;28;20939;-55
2021/06/27 01:58:51;;;;;;;0.40;0.20;;;;;;;18.97;100.00;100248.97;5074238;28;20843;-55
2021/06/27 02:01:23;;;;;;;0.40;0.30;;;;;;;18.89;100.00;100240.50;5068550;28;20530;-55
2021/06/27 02:03:50;;;;;;;0.40;0.20;;;;;;;18.66;100.00;100235.72;5073505;28;20479;-55
2021/06/27 02:06:22;;;;;;;0.50;0.40;;;;;;;18.63;100.00;100240.31;5073299;28;20458;-55
2021/06/27 02:08:49;;;;;;;0.40;0.20;;;;;;;18.61;100.00;100241.34;5073488;28;20539;-55
2021/06/27 02:11:19;;;;;;;0.40;0.30;;;;;;;18.62;100.00;100253.84;5073545;28;20535;-55
2021/06/27 02:13:47;;;;;;;1.23;1.07;;;;;;;18.65;100.00;100242.94;5072723;28;20502;-55
2021/06/27 02:16:15;;;;;;;0.50;0.30;;;;;;;18.71;100.00;100256.00;5073563;28;20795;-55
2021/06/27 02:18:44;;;;;;;0.40;0.30;;;;;;;18.64;100.00;100247.47;5073415;28;20453;-55
2021/06/27 02:21:34;;;;;;;0.50;0.30;;;;;;;18.57;100.00;100245.22;5073386;28;20940;-55
2021/06/27 02:24:02;;;;;;;0.50;0.40;;;;;;;18.52;100.00;100241.94;5073041;28;20442;-55
2021/06/27 02:26:28;;;;;;;0.40;0.20;;;;;;;18.62;100.00;100238.56;5072076;28;20449;-55
2021/06/27 02:28:59;;;;;;;0.40;0.20;;;;;;;18.61;100.00;100241.34;5059829;28;20531;-55
2021/06/27 02:31:27;;;;;;;0.50;0.50;;;;;;;18.55;100.00;100234.53;5061930;28;20467;-55
2021/06/27 02:33:55;;;;;;;0.40;0.20;;;;;;;18.50;100.00;100233.97;5073315;28;20939;-55
2021/06/27 02:36:21;;;;;;;0.40;0.20;;;;;;;18.49;100.00;100225.97;5072900;28;20460;-55
2021/06/27 02:38:49;;;;;;;0.40;0.20;;;;;;;18.43;100.00;100224.53;5071775;28;20947;-55
2021/06/27 02:41:17;;;;;;;0.40;0.20;;;;;;;18.41;100.00;100218.38;5071131;28;20497;-55
2021/06/27 02:43:44;;;;;;;0.40;0.30;;;;;;;18.51;100.00;100211.47;5062176;28;20516;-55
2021/06/27 02:46:11;;;;;;;0.40;0.20;;;;;;;18.34;100.00;100203.56;5071595;28;20834;-55
2021/06/27 02:48:37;;;;;;;0.40;0.30;;;;;;;18.38;100.00;100197.03;5072936;28;20454;-55
2021/06/27 02:51:05;;;;;;;0.40;0.20;;;;;;;18.34;100.00;100188.28;5072569;28;20477;-55
2021/06/27 02:53:31;;;;;;;0.40;0.30;;;;;;;18.32;100.00;100179.44;5072609;28;20449;-55
2021/06/27 02:56:07;;;;;;;0.40;0.20;;;;;;;18.32;100.00;100168.66;5072336;28;20736;-55
2021/06/27 02:58:39;;;;;;;0.40;0.30;;;;;;;18.29;100.00;100166.19;5072972;28;20457;-55
2021/06/27 03:01:07;;;;;;;0.40;0.20;;;;;;;18.20;100.00;100172.13;5063305;28;20495;-55
2021/06/27 03:03:35;;;;;;;0.50;0.50;;;;;;;18.22;100.00;100163.94;5064672;28;20453;-55
2021/06/27 03:06:01;;;;;;;0.67;0.67;;;;;;;18.26;100.00;100168.19;5072433;28;20445;-55
2021/06/27 03:08:28;;;;;;;0.40;0.30;;;;;;;18.33;100.00;100173.09;5072297;28;20446;-55
2021/06/27 03:10:55;;;;;;;0.40;0.27;;;;;;;18.20;100.00;100171.25;5072397;28;20520;-55
2021/06/27 03:13:22;;;;;;;0.40;0.30;;;;;;;18.12;100.00;100165.50;5072464;28;20841;-55
2021/06/27 03:15:49;;;;;;;0.40;0.20;;;;;;;18.37;100.00;100179.16;5072353;28;20854;-55
2021/06/27 03:18:15;;;;;;;0.93;0.93;;;;;;;18.05;100.00;100171.25;5072639;28;20450;-55
2021/06/27 03:20:42;;;;;;;0.40;0.30;;;;;;;18.06;100.00;100170.28;5072465;28;20567;-55
2021/06/27 03:23:10;;;;;;;0.40;0.20;;;;;;;18.12;100.00;100174.44;5071991;28;20446;-55
2021/06/27 03:25:37;;;;;;;0.40;0.20;;;;;;;18.11;100.00;100191.53;5071321;28;20445;-56
2021/06/27 03:28:05;;;;;;;0.40;0.20;;;;;;;18.00;100.00;100192.19;5070787;28;20476;-55
2021/06/27 03:30:32;;;;;;;0.80;0.80;;;;;;;18.03;100.00;100193.81;5067646;28;20466;-55
2021/06/27 03:32:59;;;;;;;0.40;0.30;;;;;;;18.01;100.00;100199.28;5065674;28;20462;-55
2021/06/27 03:35:26;;;;;;;0.50;0.47;;;;;;;17.97;100.00;100197.75;5071946;28;20454;-55
2021/06/27 03:40:20;;;;;;;0.40;0.20;;;;;;;18.04;100.00;100182.97;5064299;28;20470;-55
2021/06/27 03:42:48;;;;;;;0.40;0.20;;;;;;;17.91;100.00;100175.72;5066130;28;20567;-55
2021/06/27 03:45:15;;;;;;;0.40;0.27;;;;;;;18.04;100.00;100174.88;5071706;28;20511;-55
2021/06/27 03:47:43;;;;;;;4.33;0.60;;;;;;;18.19;100.00;100186.53;5069865;28;20457;-55
2021/06/27 03:50:10;;;;;;;0.60;0.53;;;;;;;18.05;100.00;100192.75;5071567;28;20461;-55
2021/06/27 03:52:37;;;;;;;0.40;0.20;;;;;;;18.01;100.00;100201.97;5070455;28;20524;-55
2021/06/27 03:55:06;;;;;;;0.40;0.20;;;;;;;18.03;100.00;100193.81;5071730;28;20450;-55
2021/06/27 03:57:33;;;;;;;0.40;0.30;;;;;;;17.94;100.00;100189.84;5071672;28;20453;-55
2021/06/27 04:00:00;;;;;;;0.40;0.20;;;;;;;17.98;100.00;100179.78;5071537;28;20535;-55
2021/06/27 04:02:27;;;;;;;0.63;0.50;;;;;;;17.75;100.00;100175.78;5067501;28;20521;-55
2021/06/27 04:04:53;;;;;;;0.47;0.40;;;;;;;17.90;100.00;100180.25;5071952;28;20503;-55
2021/06/27 04:07:20;;;;;;;0.60;0.50;;;;;;;17.98;100.00;100194.09;5071406;28;20450;-55
2021/06/27 04:09:46;;;;;;;2.20;1.70;;;;;;;18.03;100.00;100189.31;5071210;28;20499;-55
2021/06/27 04:12:13;;;;;;;0.40;0.20;;;;;;;18.09;100.00;100192.56;5071462;28;20446;-55
2021/06/27 04:14:40;;;;;;;0.40;0.20;;;;;;;18.04;100.00;100185.66;5071412;28;20482;-55
2021/06/27 04:17:07;;;;;;;0.40;0.20;;;;;;;18.18;100.00;100167.78;5071368;28;20461;-55
2021/06/27 04:19:34;;;;;;;2.20;0.83;;;;;;;18.19;100.00;100162.31;5071385;28;20446;-56
2021/06/27 04:22:00;;;;;;;0.50;0.30;;;;;;;18.17;100.00;100168.75;5071140;28;20494;-55
2021/06/27 04:24:27;;;;;;;0.40;0.30;;;;;;;18.23;100.00;100176.47;5061374;28;20450;-55
2021/06/27 04:26:54;;;;;;;0.40;0.20;;;;;;;18.22;100.00;100172.03;5068296;28;20453;-55
2021/06/27 04:29:20;;;;;;;0.53;0.50;;;;;;;18.48;100.00;100175.78;5066251;28;20455;-55
2021/06/27 04:31:47;;;;;;;0.40;0.20;;;;;;;18.61;100.00;100174.03;5056218;28;20473;-55
2021/06/27 04:34:13;;;;;;;0.50;0.30;;;;;;;18.59;100.00;100178.66;5071401;28;20505;-55
2021/06/27 04:36:40;;;;;;;0.50;0.40;;;;;;;18.80;100.00;100188.09;5073959;28;20809;-55
2021/06/27 04:39:08;;;;;;;2.03;1.83;;;;;;;19.13;100.00;100187.75;5075398;28;20449;-55
2021/06/27 04:41:34;;;;;;;0.50;0.40;;;;;;;19.48;100.00;100188.09;5070802;28;20490;-55
2021/06/27 04:44:01;;;;;;;0.40;0.20;;;;;;;19.74;100.00;100180.97;5066235;28;20965;-55
2021/06/27 04:46:28;;;;;;;0.50;0.47;;;;;;;20.20;100.00;100193.13;5073414;28;20539;-55
2021/06/27 04:48:55;;;;;;;0.50;0.40;;;;;;;20.76;100.00;100186.41;5075528;28;20449;-55
2021/06/27 04:51:22;;;;;;;0.40;0.30;;;;;;;20.88;97.43;100190.06;5075052;28;20488;-55
2021/06/27 04:53:48;;;;;;;1.40;1.30;;;;;;;20.88;95.75;100184.66;5075158;28;20453;-55
2021/06/27 04:56:15;;;;;;;0.50;0.30;;;;;;;21.71;92.08;100191.06;5074973;28;20450;-56
2021/06/27 04:58:41;;;;;;;0.40;0.20;;;;;;;21.56;93.00;100200.34;5074842;28;20867;-55
2021/06/27 05:01:08;;;;;;;1.63;1.07;;;;;;;21.65;92.24;100196.06;5070579;28;20528;-55
2021/06/27 05:03:35;;;;;;;0.50;0.40;;;;;;;21.29;92.79;100189.75;5075151;28;20824;-55
2021/06/27 05:06:01;;;;;;;0.77;0.40;;;;;;;21.21;92.91;100186.69;5074711;28;20560;-55
2021/06/27 05:08:28;;;;;;;0.50;0.30;;;;;;;21.20;92.89;100166.06;5074938;28;20484;-55
2021/06/27 05:10:55;;;;;;;0.50;0.30;;;;;;;20.83;94.88;100162.50;5074688;28;20472;-55
2021/06/27 05:13:21;;;;;;;0.70;0.60;;;;;;;20.47;96.71;100157.94;5074694;28;20507;-55
2021/06/27 05:15:48;;;;;;;1.03;1.03;;;;;;;20.40;96.84;100166.44;5074502;28;20579;-55
2021/06/27 05:18:15;;;;;;;0.50;0.43;;;;;;;20.25;99.29;100164.81;5074744;28;20856;-55
2021/06/27 05:20:42;;;;;;;0.50;0.40;;;;;;;20.52;97.49;100166.56;5074474;28;20482;-55
2021/06/27 05:23:10;;;;;;;3.70;1.73;;;;;;;20.32;100.00;100163.44;5074620;28;20481;-55
2021/06/27 05:25:37;;;;;;;0.40;0.30;;;;;;;20.07;100.00;100166.13;5074423;28;20454;-55
2021/06/27 05:28:03;;;;;;;0.50;0.33;;;;;;;20.32;99.90;100163.44;5074233;28;20446;-54
2021/06/27 05:30:30;;;;;;;0.40;0.30;;;;;;;20.54;99.43;100161.91;5070340;28;20868;-54
2021/06/27 05:32:58;;;;;;;1.10;0.87;;;;;;;21.10;97.32;100168.56;5068623;28;20449;-54
2021/06/27 05:35:24;;;;;;;0.50;0.20;;;;;;;21.91;92.42;100167.00;5074785;28;20450;-54
2021/06/27 05:37:51;;;;;;;0.40;0.30;;;;;;;22.28;91.16;100170.44;5074223;28;20510;-54
2021/06/27 05:40:18;;;;;;;1.53;1.43;;;;;;;22.35;90.33;100167.13;5073963;28;20535;-54
2021/06/27 05:42:46;;;;;;;0.40;0.30;;;;;;;22.89;89.20;100168.22;5060473;28;20486;-54
2021/06/27 05:45:12;;;;;;;0.40;0.30;;;;;;;23.08;87.86;100170.31;5074010;28;20469;-54
2021/06/27 05:47:39;;;;;;;0.50;0.20;;;;;;;23.81;84.26;100175.00;5070187;28;20969;-54
2021/06/27 05:50:06;;;;;;;0.70;0.70;;;;;;;23.50;84.32;100174.00;5073866;28;20470;-54
2021/06/27 05:52:33;;;;;;;0.50;0.30;;;;;;;23.07;86.21;100177.56;5073812;28;20466;-54
2021/06/27 05:55:00;;;;;;;0.50;0.30;;;;;;;22.69;89.15;100169.81;5073797;28;20507;-54
2021/06/27 05:57:26;;;;;;;0.80;0.80;;;;;;;22.57;87.84;100162.69;5073666;28;20506;-54
2021/06/27 05:59:53;;;;;;;0.50;0.20;;;;;;;22.31;89.68;100165.63;5073875;28;20480;-54
2021/06/27 06:02:19;;;;;;;0.40;0.20;;;;;;;23.16;88.11;100163.25;5067751;28;20520;-54
2021/06/27 06:04:46;;;;;;;0.50;0.20;;;;;;;23.11;88.52;100173.63;5073796;28;20798;-54
2021/06/27 06:07:13;;;;;;;1.70;1.70;;;;;;;22.58;89.13;100165.25;5073535;28;20850;-54
2021/06/27 06:09:39;;;;;;;0.50;0.30;;;;;;;22.35;89.35;100164.41;5073405;28;20457;-54
2021/06/27 06:12:06;;;;;;;0.40;0.30;;;;;;;22.29;90.15;100161.31;5073329;28;20892;-54
2021/06/27 06:14:34;;;;;;;0.40;0.30;;;;;;;22.43;90.73;100158.38;5073664;28;20445;-54
2021/06/27 06:17:00;;;;;;;0.50;0.20;;;;;;;23.06;87.36;100151.44;5072405;28;20450;-54
2021/06/27 06:19:27;;;;;;;3.13;3.03;;;;;;;23.01;85.47;100146.38;5073980;28;20469;-54
2021/06/27 06:21:54;;;;;;;2.50;2.30;;;;;;;23.44;82.53;100141.97;5073316;28;20859;-54
2021/06/27 06:24:21;;;;;;;0.40;0.30;;;;;;;23.24;83.19;100143.63;5072974;28;20449;-54
2021/06/27 06:26:48;;;;;;;0.50;0.20;;;;;;;23.58;81.23;100157.97;5073324;28;20771;-54
2021/06/27 06:29:14;;;;;;;1.50;1.50;;;;;;;23.41;82.21;100145.78;5073296;28;20830;-54
2021/06/27 06:31:41;;;;;;;0.50;0.40;;;;;;;23.69;80.61;100151.59;5060882;28;20520;-55
2021/06/27 06:34:08;;;;;;;0.50;0.30;;;;;;;23.77;80.84;100149.09;5071914;28;20536;-54
2021/06/27 06:36:35;;;;;;;0.50;0.30;;;;;;;22.94;83.00;100158.75;5071569;28;20458;-54
2021/06/27 06:39:02;;;;;;;0.40;0.20;;;;;;;23.05;83.28;100163.28;5072862;28;20476;-54
2021/06/27 06:41:29;;;;;;;0.50;0.30;;;;;;;23.31;82.60;100159.28;5069368;28;20555;-54
2021/06/27 06:43:56;;;;;;;0.50;0.30;;;;;;;23.76;82.15;100166.41;5063598;28;20522;-54
2021/06/27 06:46:23;;;;;;;0.90;0.77;;;;;;;23.68;81.55;100163.47;5071133;28;20966;-54
2021/06/27 06:48:49;;;;;;;0.60;0.40;;;;;;;23.38;82.11;100166.88;5073006;28;20446;-54
2021/06/27 06:51:17;;;;;;;1.33;0.83;;;;;;;24.23;80.35;100170.41;5072568;28;20953;-55
2021/06/27 06:53:43;;;;;;;1.13;0.40;;;;;;;23.73;79.73;100172.09;5072652;28;20450;-54
2021/06/27 06:56:10;;;;;;;0.53;0.40;;;;;;;23.33;81.56;100173.56;5072578;28;20450;-54
2021/06/27 06:58:36;;;;;;;0.67;0.63;;;;;;;23.22;81.36;100168.16;5072754;28;20874;-55
2021/06/27 07:01:03;;;;;;;0.50;0.30;;;;;;;23.34;82.74;100161.72;5067963;28;20465;-54
2021/06/27 07:03:30;;;;;;;0.50;0.30;;;;;;;23.37;82.09;100160.59;5072451;28;20473;-54
2021/06/27 07:05:59;;;;;;;0.40;0.20;;;;;;;23.12;83.05;100156.34;5072038;28;20446;-54
2021/06/27 07:08:29;;;;;;;0.50;0.37;;;;;;;22.89;84.03;100169.13;5070667;28;20446;-54
2021/06/27 07:10:57;;;;;;;0.50;0.30;;;;;;;23.10;82.75;100158.34;5071833;28;20470;-55
2021/06/27 07:13:24;;;;;;;0.50;0.30;;;;;;;23.49;82.61;100167.72;5072094;28;20492;-54
2021/06/27 07:15:51;;;;;;;0.77;0.77;;;;;;;23.58;80.75;100163.41;5070391;28;20461;-54
2021/06/27 07:18:19;;;;;;;0.40;0.30;;;;;;;23.24;82.40;100163.47;5071881;28;20450;-54
2021/06/27 07:20:46;;;;;;;0.40;0.20;;;;;;;23.13;82.86;100154.50;5071515;28;20447;-54
2021/06/27 07:23:12;;;;;;;0.50;0.30;;;;;;;23.17;82.02;100164.13;5071979;28;20467;-54
2021/06/27 07:25:39;;;;;;;0.40;0.23;;;;;;;23.34;81.88;100159.00;5071765;28;20420;-54
2021/06/27 07:28:06;;;;;;;1.47;0.83;;;;;;;23.18;82.27;100152.28;5071976;28;20436;-54
2021/06/27 07:30:32;;;;;;;0.50;0.40;;;;;;;23.52;82.23;100162.00;5066954;28;20552;-54
2021/06/27 07:33:00;;;;;;;0.50;0.30;;;;;;;23.83;81.47;100163.00;5065093;28;20457;-54
2021/06/27 07:35:26;;;;;;;0.50;0.30;;;;;;;24.13;80.11;100155.94;5071844;28;20885;-54
2021/06/27 07:37:53;;;;;;;0.50;0.30;;;;;;;24.09;79.59;100154.47;5071897;28;20457;-54
2021/06/27 07:40:20;;;;;;;0.43;0.27;;;;;;;23.94;80.07;100153.94;5071418;28;20469;-54
2021/06/27 07:42:49;;;;;;;0.40;0.30;;;;;;;24.37;79.99;100155.66;5057951;28;21069;-54
2021/06/27 07:45:16;;;;;;;0.50;0.30;;;;;;;24.23;79.15;100157.69;5071900;28;20485;-55
2021/06/27 07:47:43;;;;;;;0.50;0.40;;;;;;;24.41;78.56;100157.13;5070706;28;20489;-54
2021/06/27 07:50:10;;;;;;;0.47;0.30;;;;;;;24.71;78.29;100159.81;5071269;28;20950;-54
2021/06/27 07:52:38;;;;;;;0.67;0.63;;;;;;;24.72;76.99;100153.38;5071308;28;20456;-55
2021/06/27 07:55:07;;;;;;;0.50;0.30;;;;;;;24.94;77.43;100154.16;5071359;28;20421;-55
2021/06/27 07:57:37;;;;;;;0.43;0.30;;;;;;;24.93;76.30;100152.44;5071044;28;20893;-54
2021/06/27 08:00:06;;;;;;;0.50;0.30;;;;;;;25.05;75.44;100156.78;5070533;28;20454;-54
2021/06/27 08:02:33;;;;;;;1.33;1.23;;;;;;;24.82;76.39;100150.72;5067683;28;20476;-55
2021/06/27 08:04:59;;;;;;;0.80;0.80;;;;;;;24.91;76.84;100149.84;5071155;28;20487;-55
2021/06/27 08:07:26;;;;;;;0.50;0.30;;;;;;;25.02;74.69;100151.66;5071616;28;20446;-55
2021/06/27 08:09:53;;;;;;;0.47;0.40;;;;;;;25.15;74.77;100152.25;5070683;28;20446;-54
2021/06/27 08:12:19;;;;;;;0.50;0.30;;;;;;;25.31;73.93;100159.84;5070755;28;20441;-55
2021/06/27 08:14:46;;;;;;;0.70;0.67;;;;;;;24.90;74.35;100161.75;5070967;28;20906;-55
2021/06/27 08:17:13;;;;;;;0.50;0.50;;;;;;;24.77;75.60;100152.97;5071103;28;20925;-55
2021/06/27 08:19:39;;;;;;;0.50;0.30;;;;;;;25.21;75.62;100148.09;5071266;28;20424;-54
2021/06/27 08:22:06;;;;;;;0.50;0.30;;;;;;;25.18;74.60;100157.41;5070928;28;20861;-55
2021/06/27 08:24:33;;;;;;;0.50;0.30;;;;;;;24.91;75.32;100154.44;5069858;28;20449;-54
2021/06/27 08:27:00;;;;;;;0.77;0.77;;;;;;;25.20;75.25;100163.56;5071078;28;20504;-54
2021/06/27 08:29:26;;;;;;;0.60;0.50;;;;;;;25.50;73.85;100165.34;5069900;28;20446;-57
2021/06/27 08:31:53;;;;;;;1.17;0.60;;;;;;;25.38;74.82;100166.47;5059657;28;20445;-55
2021/06/27 08:34:19;;;;;;;0.50;0.30;;;;;;;25.70;72.90;100152.59;5071294;28;20820;-55
2021/06/27 08:36:46;;;;;;;2.20;1.23;;;;;;;25.56;73.56;100145.69;5070991;28;20482;-55
2021/06/27 08:39:13;;;;;;;0.50;0.30;;;;;;;25.65;74.07;100141.25;5070901;28;20420;-54
2021/06/27 08:41:40;;;;;;;3.50;0.83;;;;;;;25.90;72.87;100142.53;5065637;28;20491;-55
2021/06/27 08:44:10;;;;;;;0.50;0.30;;;;;;;25.66;74.01;100134.81;5062666;28;20523;-56
2021/06/27 08:46:40;;;;;;;0.50;0.30;;;;;;;25.49;74.71;100138.22;5069416;28;20593;-55
2021/06/27 08:49:08;;;;;;;0.50;0.40;;;;;;;25.34;75.84;100141.38;5069486;28;20926;-55
2021/06/27 08:51:42;;;;;;;0.70;0.70;;;;;;;25.52;76.18;100141.53;5070855;28;20444;-55
2021/06/27 08:54:10;;;;;;;1.13;1.03;;;;;;;25.55;76.12;100148.56;5071058;28;20907;-54
2021/06/27 08:56:39;;;;;;;0.60;0.50;;;;;;;25.96;74.86;100139.25;5070789;28;20429;-55
2021/06/27 08:59:06;;;;;;;0.50;0.30;;;;;;;25.94;70.35;100139.38;5070589;28;20490;-54
2021/06/27 09:01:33;;;;;;;1.20;1.20;;;;;;;26.28;70.03;100137.00;5065038;28;20466;-55
2021/06/27 09:04:00;;;;;;;0.50;0.30;;;;;;;26.85;70.00;100131.47;5070605;28;20787;-55
2021/06/27 09:06:30;;;;;;;1.23;1.03;;;;;;;26.51;69.89;100133.94;5070547;28;20453;-55
2021/06/27 09:09:17;;;;;;;0.50;0.40;;;;;;;26.42;69.79;100137.56;5069045;28;20439;-54
2021/06/27 09:12:05;;;;;;;0.50;0.30;;;;;;;25.95;70.52;100141.09;5070866;28;20436;-53
2021/06/27 09:14:43;;;;;;;0.50;0.30;;;;;;;26.27;71.65;100132.56;5071316;28;20424;-54
2021/06/27 09:17:11;;;;;;;0.50;0.30;;;;;;;26.78;70.62;100120.31;5070973;28;20811;-54
2021/06/27 09:19:56;;;;;;;0.50;0.50;;;;;;;27.21;70.27;100126.97;5071161;28;20428;-54
2021/06/27 09:22:22;;;;;;;0.50;0.40;;;;;;;27.38;70.60;100119.81;5071375;28;20559;-54
2021/06/27 09:24:50;;;;;;;0.60;0.50;;;;;;;27.24;69.76;100121.19;5074393;28;20486;-54
2021/06/27 09:27:24;;;;;;;0.50;0.40;;;;;;;26.87;69.60;100115.84;5073324;28;20436;-54
2021/06/27 09:29:52;;;;;;;0.50;0.30;;;;;;;27.33;70.25;100112.09;5074096;28;20450;-54
2021/06/27 09:32:22;;;;;;;0.50;0.40;;;;;;;27.83;67.38;100111.53;5063461;28;20416;-55
2021/06/27 09:34:49;;;;;;;0.50;0.30;;;;;;;27.40;67.63;100112.31;5075249;28;20450;-54
2021/06/27 09:37:27;;;;;;;0.50;0.30;;;;;;;26.79;69.78;100124.75;5074630;28;20522;-55
2021/06/27 09:40:02;;;;;;;0.43;0.23;;;;;;;26.61;69.04;100107.50;5072691;28;20925;-54
2021/06/27 09:42:30;;;;;;;0.50;0.30;;;;;;;26.99;70.10;100111.00;5062536;28;20579;-54
2021/06/27 09:45:05;;;;;;;0.70;0.70;;;;;;;27.00;68.25;100105.41;5071484;28;20807;-55
2021/06/27 09:47:32;;;;;;;2.40;2.23;;;;;;;26.95;68.82;100121.38;5072536;28;21035;-55
2021/06/27 09:50:00;;;;;;;0.50;0.30;;;;;;;26.71;68.67;100116.47;5074130;28;20461;-55
2021/06/27 09:52:40;;;;;;;3.03;0.80;;;;;;;26.74;69.46;100124.38;5073803;28;20496;-55
2021/06/27 09:55:10;;;;;;;0.50;0.30;;;;;;;26.35;71.03;100120.94;5073969;28;20424;-54
2021/06/27 09:57:38;;;;;;;0.60;0.50;;;;;;;26.42;71.54;100121.19;5073610;28;20447;-54
2021/06/27 10:00:29;;;;;;;0.67;0.67;;;;;;;26.68;70.19;100122.22;5073367;28;20523;-55
2021/06/27 10:03:04;;;;;;;2.10;1.80;;;;;;;26.50;71.61;100108.56;5072268;28;20493;-54
2021/06/27 10:05:33;;;;;;;2.07;1.50;;;;;;;26.77;71.01;100106.84;5073904;28;20796;-54
2021/06/27 10:08:00;;;;;;;0.60;0.40;;;;;;;26.39;73.00;100107.88;5073668;28;20968;-55
2021/06/27 10:10:27;;;;;;;0.50;0.20;;;;;;;26.84;71.10;100114.25;5073519;28;20808;-55
2021/06/27 10:12:53;;;;;;;0.43;0.30;;;;;;;26.16;71.07;100112.78;5073478;28;21000;-54
2021/06/27 10:15:20;;;;;;;0.50;0.30;;;;;;;26.32;71.71;100104.88;5073165;28;21020;-54
2021/06/27 10:17:47;;;;;;;2.80;0.60;;;;;;;26.75;72.34;100103.41;5073300;28;20425;-55
2021/06/27 10:20:16;;;;;;;0.50;0.40;;;;;;;26.71;70.31;100102.84;5073327;28;20459;-56
2021/06/27 10:22:44;;;;;;;0.60;0.50;;;;;;;26.87;68.81;100099.47;5073498;28;20464;-55
2021/06/27 10:25:13;;;;;;;0.50;0.20;;;;;;;26.95;69.58;100104.13;5072147;28;20429;-55
2021/06/27 10:27:40;;;;;;;0.50;0.30;;;;;;;27.01;68.85;100106.31;5073146;28;20425;-55
2021/06/27 10:30:11;;;;;;;1.30;0.70;;;;;;;27.18;69.62;100107.31;5071836;28;20825;-56
2021/06/27 10:32:42;;;;;;;0.50;0.30;;;;;;;27.26;68.81;100104.66;5063376;28;20872;-56
2021/06/27 10:35:11;;;;;;;0.47;0.20;;;;;;;27.27;70.47;100103.66;5072686;28;20436;-57
2021/06/27 10:37:43;;;;;;;2.30;2.20;;;;;;;27.63;69.25;100097.16;5073502;28;20515;-56
2021/06/27 10:40:15;;;;;;;0.50;0.30;;;;;;;27.43;67.31;100099.22;5072966;28;20490;-56
2021/06/27 10:42:48;;;;;;;0.50;0.50;;;;;;;27.52;69.28;100102.88;5058909;28;20469;-56
2021/06/27 10:45:21;;;;;;;0.60;0.57;;;;;;;26.90;67.87;100104.59;5071951;28;20428;-56
2021/06/27 10:47:48;;;;;;;0.50;0.30;;;;;;;27.35;69.29;100095.53;5072148;28;20428;-56
2021/06/27 10:50:17;;;;;;;0.50;0.30;;;;;;;27.15;68.58;100086.66;5072879;28;20995;-56
2021/06/27 10:52:53;;;;;;;0.60;0.50;;;;;;;27.09;65.99;100090.84;5059607;28;20421;-56
2021/06/27 10:55:30;;;;;;;1.73;0.50;;;;;;;27.56;65.58;100089.78;5072737;28;20492;-56
2021/06/27 10:58:12;;;;;;;1.03;1.03;;;;;;;27.70;64.67;100087.38;5072792;28;20515;-56
2021/06/27 11:00:55;;;;;;;0.50;0.30;;;;;;;27.53;66.62;100092.78;5068505;28;20915;-56
2021/06/27 11:03:31;;;;;;;0.50;0.30;;;;;;;27.31;66.63;100096.88;5072887;28;20471;-56
2021/06/27 11:05:59;;;;;;;0.50;0.30;;;;;;;27.32;68.11;100090.41;5073351;28;20423;-56
2021/06/27 11:08:40;;;;;;;0.53;0.47;;;;;;;27.14;68.71;100084.94;5073116;28;20482;-56
2021/06/27 11:11:09;;;;;;;0.50;0.30;;;;;;;27.12;66.60;100084.22;5072303;28;20466;-56
2021/06/27 11:13:38;;;;;;;0.70;0.70;;;;;;;27.26;67.14;100089.13;5072720;28;20452;-56
2021/06/27 11:16:10;;;;;;;0.50;0.40;;;;;;;27.35;66.39;100081.91;5072482;28;20424;-56
2021/06/27 11:18:41;;;;;;;0.50;0.40;;;;;;;27.09;67.29;100068.16;5072708;28;20599;-61
2021/06/27 11:21:10;;;;;;;0.50;0.30;;;;;;;27.12;68.19;100070.56;5071126;28;20489;-56
2021/06/27 11:23:46;;;;;;;0.80;0.67;;;;;;;27.42;67.23;100067.47;5069652;28;20896;-57
2021/06/27 11:26:38;;;;;;;0.50;0.30;;;;;;;27.53;65.55;100060.88;5063953;28;20478;-56
2021/06/27 11:29:23;;;;;;;0.50;0.40;;;;;;;27.97;64.38;100069.97;5072518;28;20457;-57